Terminal Aerodrome Forecast
Issued by NWS

Home | Current Version | Previous Version | Text Only | Print | Product List | Glossary On
Versions: 1 2 3 4 5 6 7 8 9 10 11 12 13 14 15 16 17 18 19 20 21 22 23
614
FTUS42 KTAE 211521 AAB
TAFDHN
TAF AMD
KDHN 211521Z 2115/2212 19015G25KT P6SM VCTS OVC015CB
     FM211630 VRB15G25KT 2SM +TSRA OVC025CB
     FM211830 20012G22KT 6SM -RA OVC020=

USA.gov is the U.S. government's official web portal to all federal, state and local government web resources and services.